Time;durP1;ratioP1;P1;durP2;ratioP2;P2;SDS_P1;SDS_P2;PMS_P1;PMS_P2;Temp;Humidity;BMP_temperature;BMP_pressure;BME280_temperature;BME280_humidity;BME280_pressure;Samples;Min_cycle;Max_cycle;Signal;HPM_P1;HPM_P2
2023/04/19 00:02:08;;;;;;;34.90;18.00;;;;;;;;;;4949980;29;20051;-81
2023/04/19 00:04:36;;;;;;;32.05;17.35;;;;;;;;;;4937021;29;20043;-79
2023/04/19 00:07:07;;;;;;;34.20;17.48;;;;;;;;;;4950443;29;20058;-79
2023/04/19 00:09:33;;;;;;;33.25;17.20;;;;;;;;;;4951905;29;20048;-80
2023/04/19 00:12:01;;;;;;;31.58;17.00;;;;;;;;;;4950842;29;20096;-81
2023/04/19 00:14:27;;;;;;;34.75;17.15;;;;;;;;;;4948805;29;20079;-80
2023/04/19 00:16:54;;;;;;;31.10;16.58;;;;;;;;;;4949418;29;20048;-80
2023/04/19 00:19:22;;;;;;;32.20;16.40;;;;;;;;;;4945915;29;20044;-79
2023/04/19 00:21:48;;;;;;;28.95;15.18;;;;;;;;;;4945708;29;20385;-80
2023/04/19 00:24:15;;;;;;;30.52;15.73;;;;;;;;;;4947876;29;20043;-80
2023/04/19 00:26:41;;;;;;;28.63;15.85;;;;;;;;;;4946358;29;20130;-78
2023/04/19 00:29:08;;;;;;;32.47;15.80;;;;;;;;;;4932606;29;20039;-82
2023/04/19 00:31:38;;;;;;;31.33;15.20;;;;;;;;;;4930923;29;20072;-78
2023/04/19 00:34:06;;;;;;;29.55;14.57;;;;;;;;;;4950326;29;20043;-79
2023/04/19 00:36:34;;;;;;;27.63;13.70;;;;;;;;;;4953060;29;20047;-79
2023/04/19 00:39:00;;;;;;;29.23;13.45;;;;;;;;;;4947804;29;20055;-79
2023/04/19 00:41:27;;;;;;;23.25;12.52;;;;;;;;;;4952123;29;20035;-80
2023/04/19 00:43:56;;;;;;;25.55;12.30;;;;;;;;;;4934804;29;20043;-81
2023/04/19 00:46:23;;;;;;;22.73;11.52;;;;;;;;;;4950148;29;20110;-79
2023/04/19 00:48:50;;;;;;;18.85;10.98;;;;;;;;;;4943221;29;20063;-80
2023/04/19 00:51:17;;;;;;;21.20;10.75;;;;;;;;;;4946969;29;20468;-79
2023/04/19 00:53:46;;;;;;;26.33;10.00;;;;;;;;;;4947619;29;20670;-79
2023/04/19 00:56:13;;;;;;;26.33;11.18;;;;;;;;;;4948578;29;20051;-79
2023/04/19 00:58:40;;;;;;;21.88;10.15;;;;;;;;;;4945808;29;20075;-79
2023/04/19 01:01:07;;;;;;;19.67;11.20;;;;;;;;;;4937754;29;20102;-79
2023/04/19 01:03:35;;;;;;;20.20;10.82;;;;;;;;;;4946923;29;20055;-81
2023/04/19 01:06:02;;;;;;;20.55;11.10;;;;;;;;;;4947612;29;20103;-79
2023/04/19 01:08:29;;;;;;;20.17;11.40;;;;;;;;;;4947219;29;20068;-80
2023/04/19 01:10:57;;;;;;;20.75;11.40;;;;;;;;;;4950802;29;20074;-79
2023/04/19 01:13:24;;;;;;;21.73;10.55;;;;;;;;;;4949957;29;20050;-80
2023/04/19 01:15:50;;;;;;;21.13;11.55;;;;;;;;;;4947871;29;20119;-79
2023/04/19 01:18:19;;;;;;;20.70;11.30;;;;;;;;;;4929628;29;20050;-79
2023/04/19 01:20:47;;;;;;;23.38;11.18;;;;;;;;;;4946669;29;20055;-80
2023/04/19 01:23:14;;;;;;;23.40;11.20;;;;;;;;;;4946839;29;20051;-79
2023/04/19 01:25:40;;;;;;;18.98;10.63;;;;;;;;;;4947431;29;20065;-81
2023/04/19 01:28:07;;;;;;;20.23;10.90;;;;;;;;;;4944296;29;20109;-79
2023/04/19 01:30:34;;;;;;;19.33;10.27;;;;;;;;;;4944395;29;20052;-80
2023/04/19 01:33:00;;;;;;;18.35;10.23;;;;;;;;;;4944067;29;20103;-80
2023/04/19 01:35:28;;;;;;;21.88;10.00;;;;;;;;;;4940995;29;20111;-81
2023/04/19 01:37:55;;;;;;;24.33;10.77;;;;;;;;;;4936773;29;20457;-82
2023/04/19 01:40:25;;;;;;;22.00;10.63;;;;;;;;;;4936136;29;20072;-81
2023/04/19 01:42:53;;;;;;;18.92;9.82;;;;;;;;;;4936262;29;20079;-82
2023/04/19 01:45:19;;;;;;;20.58;10.75;;;;;;;;;;4937807;29;20127;-83
2023/04/19 01:47:50;;;;;;;17.90;10.68;;;;;;;;;;4916977;29;20052;-81
2023/04/19 01:50:16;;;;;;;24.13;11.70;;;;;;;;;;4905274;29;20063;-81
2023/04/19 01:52:43;;;;;;;21.58;11.35;;;;;;;;;;4918598;29;20040;-80
2023/04/19 01:55:09;;;;;;;25.40;11.02;;;;;;;;;;4920489;29;20063;-81
2023/04/19 01:57:36;;;;;;;19.42;10.85;;;;;;;;;;4904274;29;20050;-81
2023/04/19 02:00:03;;;;;;;19.55;10.88;;;;;;;;;;4918829;29;20056;-80
2023/04/19 02:02:39;;;;;;;26.00;11.23;;;;;;;;;;4935027;29;20044;-81
2023/04/19 02:05:07;;;;;;;21.98;11.23;;;;;;;;;;4936713;29;20074;-81
2023/04/19 02:07:34;;;;;;;25.88;11.40;;;;;;;;;;4918053;29;20499;-82
2023/04/19 02:10:00;;;;;;;21.90;11.07;;;;;;;;;;4903267;29;20047;-81
2023/04/19 02:12:28;;;;;;;19.88;10.57;;;;;;;;;;4901587;29;20048;-81
2023/04/19 02:14:58;;;;;;;25.08;11.60;;;;;;;;;;4936871;29;20052;-81
2023/04/19 02:17:33;;;;;;;23.45;11.63;;;;;;;;;;4904434;29;20111;-82
2023/04/19 02:20:00;;;;;;;25.30;11.77;;;;;;;;;;4918223;29;20052;-81
2023/04/19 02:22:27;;;;;;;21.27;11.30;;;;;;;;;;4935639;29;20111;-81
2023/04/19 02:24:54;;;;;;;19.60;10.90;;;;;;;;;;4922301;29;20048;-82
2023/04/19 02:27:26;;;;;;;25.63;11.18;;;;;;;;;;4921429;29;20159;-82
2023/04/19 02:29:53;;;;;;;24.17;11.02;;;;;;;;;;4940029;29;20047;-82
2023/04/19 02:32:19;;;;;;;21.67;11.23;;;;;;;;;;4920824;29;20534;-82
2023/04/19 02:34:46;;;;;;;22.17;11.80;;;;;;;;;;4939616;29;20107;-82
2023/04/19 02:37:12;;;;;;;24.17;12.20;;;;;;;;;;4907115;29;20043;-80
2023/04/19 02:39:41;;;;;;;27.67;13.18;;;;;;;;;;4924325;29;20501;-78
2023/04/19 02:42:07;;;;;;;25.60;12.90;;;;;;;;;;4923577;29;20452;-81
2023/04/19 02:44:34;;;;;;;25.88;11.48;;;;;;;;;;4921597;29;20119;-83
2023/04/19 02:47:01;;;;;;;21.52;11.52;;;;;;;;;;4926106;29;20052;-81
2023/04/19 02:49:31;;;;;;;23.55;10.95;;;;;;;;;;4922340;29;20039;-81
2023/04/19 02:51:59;;;;;;;33.55;11.77;;;;;;;;;;4921387;29;20060;-82
2023/04/19 02:54:26;;;;;;;21.17;10.65;;;;;;;;;;4922472;29;20043;-82
2023/04/19 02:56:52;;;;;;;22.75;11.55;;;;;;;;;;4921701;29;20563;-83
2023/04/19 02:59:19;;;;;;;24.30;10.15;;;;;;;;;;4922135;29;20072;-79
2023/04/19 03:01:45;;;;;;;22.42;10.93;;;;;;;;;;4921105;29;20040;-79
2023/04/19 03:04:12;;;;;;;19.17;10.88;;;;;;;;;;4906423;29;20069;-82
2023/04/19 03:06:40;;;;;;;19.63;10.13;;;;;;;;;;4922442;29;20051;-82
2023/04/19 03:09:07;;;;;;;25.17;10.73;;;;;;;;;;4922005;29;20666;-81
2023/04/19 03:11:37;;;;;;;20.08;9.93;;;;;;;;;;4905706;29;20449;-82
2023/04/19 03:14:04;;;;;;;20.50;10.07;;;;;;;;;;4921939;29;20067;-81
2023/04/19 03:16:30;;;;;;;21.65;10.18;;;;;;;;;;4905603;29;20576;-81
2023/04/19 03:18:57;;;;;;;23.92;10.30;;;;;;;;;;4922062;29;20048;-82
2023/04/19 03:21:28;;;;;;;20.52;9.73;;;;;;;;;;4922912;29;20044;-82
2023/04/19 03:23:54;;;;;;;22.33;10.30;;;;;;;;;;4901388;29;20064;-80
2023/04/19 03:26:23;;;;;;;21.95;10.77;;;;;;;;;;4934078;29;20058;-80
2023/04/19 03:28:52;;;;;;;20.80;10.63;;;;;;;;;;4913701;29;20048;-81
2023/04/19 03:31:57;;;;;;;26.23;11.52;;;;;;;;;;4921830;29;20047;-82
2023/04/19 03:34:23;;;;;;;22.98;11.38;;;;;;;;;;4911163;29;20044;-82
2023/04/19 03:36:50;;;;;;;27.20;11.48;;;;;;;;;;4900979;29;20107;-82
2023/04/19 03:39:17;;;;;;;20.95;10.98;;;;;;;;;;4901249;29;20044;-82
2023/04/19 03:41:47;;;;;;;29.83;12.15;;;;;;;;;;4901427;29;20786;-82
2023/04/19 03:44:21;;;;;;;22.98;11.90;;;;;;;;;;4901679;29;20048;-81
2023/04/19 03:46:48;;;;;;;24.95;12.00;;;;;;;;;;4932443;29;20061;-79
2023/04/19 03:49:20;;;;;;;27.30;12.02;;;;;;;;;;4928964;29;20102;-80
2023/04/19 03:51:52;;;;;;;27.02;12.38;;;;;;;;;;4919366;29;20055;-79
2023/04/19 03:54:19;;;;;;;30.83;13.23;;;;;;;;;;4919430;29;20050;-80
2023/04/19 03:56:46;;;;;;;33.33;14.60;;;;;;;;;;4919406;29;20086;-78
2023/04/19 03:59:13;;;;;;;27.63;13.80;;;;;;;;;;4920383;29;20479;-80
2023/04/19 04:01:41;;;;;;;29.70;14.82;;;;;;;;;;4918245;29;20055;-80
2023/04/19 04:04:08;;;;;;;37.55;13.63;;;;;;;;;;4920262;29;20512;-80
2023/04/19 04:06:35;;;;;;;30.63;14.63;;;;;;;;;;4919397;29;20128;-79
2023/04/19 04:09:01;;;;;;;34.22;15.13;;;;;;;;;;4939787;29;20056;-80
2023/04/19 04:11:29;;;;;;;31.60;14.30;;;;;;;;;;4904796;29;20058;-82
2023/04/19 04:13:56;;;;;;;33.58;15.93;;;;;;;;;;4921706;29;20489;-80
2023/04/19 04:16:26;;;;;;;35.03;15.38;;;;;;;;;;4921164;29;20043;-81
2023/04/19 04:18:54;;;;;;;40.47;16.23;;;;;;;;;;4920098;29;20046;-80
2023/04/19 04:21:25;;;;;;;35.47;15.93;;;;;;;;;;4903403;29;20071;-82
2023/04/19 04:23:52;;;;;;;37.47;16.77;;;;;;;;;;4919927;29;20044;-82
2023/04/19 04:26:29;;;;;;;37.35;16.52;;;;;;;;;;4920994;29;20058;-80
2023/04/19 04:29:11;;;;;;;36.03;16.70;;;;;;;;;;4919239;29;20088;-81
2023/04/19 04:31:39;;;;;;;40.85;17.90;;;;;;;;;;4920257;29;20066;-76
2023/04/19 04:34:08;;;;;;;42.13;17.52;;;;;;;;;;4920035;29;20058;-81
2023/04/19 04:36:38;;;;;;;43.00;19.15;;;;;;;;;;4921192;29;20100;-80
2023/04/19 04:39:05;;;;;;;47.65;20.30;;;;;;;;;;4931136;29;20131;-82
2023/04/19 04:41:34;;;;;;;46.47;20.42;;;;;;;;;;4927083;29;20051;-80
2023/04/19 04:44:03;;;;;;;45.92;21.20;;;;;;;;;;4920651;29;20051;-80
2023/04/19 04:46:39;;;;;;;45.30;21.02;;;;;;;;;;4919722;29;20107;-82
2023/04/19 04:49:08;;;;;;;47.13;21.65;;;;;;;;;;4915977;29;20039;-82
2023/04/19 04:51:36;;;;;;;49.53;21.40;;;;;;;;;;4937103;29;20052;-83
2023/04/19 04:54:04;;;;;;;46.60;21.67;;;;;;;;;;4937241;29;20044;-83
2023/04/19 04:56:32;;;;;;;49.40;23.00;;;;;;;;;;4938509;29;20043;-83
2023/04/19 04:58:59;;;;;;;51.97;22.75;;;;;;;;;;4939425;29;20075;-84
2023/04/19 05:01:30;;;;;;;53.15;22.77;;;;;;;;;;4940124;29;20114;-83
2023/04/19 05:03:57;;;;;;;50.05;23.13;;;;;;;;;;4937529;29;20075;-82
2023/04/19 05:06:25;;;;;;;48.63;23.42;;;;;;;;;;4939693;29;20040;-82
2023/04/19 05:08:52;;;;;;;49.20;23.17;;;;;;;;;;4940022;29;20050;-83
2023/04/19 05:11:27;;;;;;;48.00;21.52;;;;;;;;;;4937101;29;20086;-82
2023/04/19 05:13:54;;;;;;;37.08;19.02;;;;;;;;;;4930284;29;20067;-81
2023/04/19 05:16:21;;;;;;;36.13;18.25;;;;;;;;;;4912125;29;20067;-81
2023/04/19 05:18:48;;;;;;;35.70;18.30;;;;;;;;;;4912634;29;20062;-82
2023/04/19 05:21:15;;;;;;;36.65;18.60;;;;;;;;;;4911421;29;20076;-81
2023/04/19 05:23:41;;;;;;;40.15;17.40;;;;;;;;;;4913654;29;20071;-80
2023/04/19 05:26:11;;;;;;;34.50;15.00;;;;;;;;;;4912775;29;20186;-81
2023/04/19 05:28:39;;;;;;;32.35;14.68;;;;;;;;;;4917554;29;20043;-83
2023/04/19 05:31:11;;;;;;;36.75;16.42;;;;;;;;;;4928016;29;20070;-83
2023/04/19 05:33:45;;;;;;;31.13;15.27;;;;;;;;;;4899838;29;20051;-82
2023/04/19 05:36:12;;;;;;;32.53;17.08;;;;;;;;;;4941245;28;20051;-84
2023/04/19 05:38:39;;;;;;;39.08;14.57;;;;;;;;;;4933788;29;20075;-83
2023/04/19 05:41:06;;;;;;;32.42;15.13;;;;;;;;;;4925082;29;20052;-81
2023/04/19 05:43:33;;;;;;;26.13;13.45;;;;;;;;;;4927666;29;20052;-83
2023/04/19 05:46:01;;;;;;;33.78;14.35;;;;;;;;;;4914685;29;20044;-81
2023/04/19 05:48:29;;;;;;;28.63;13.57;;;;;;;;;;4919171;29;20039;-81
2023/04/19 05:51:17;;;;;;;25.55;12.73;;;;;;;;;;4911921;28;20047;-81
2023/04/19 05:53:55;;;;;;;27.27;12.57;;;;;;;;;;4893857;29;20051;-82
2023/04/19 05:56:24;;;;;;;23.90;11.43;;;;;;;;;;4932756;29;20539;-83
2023/04/19 05:58:51;;;;;;;25.98;11.98;;;;;;;;;;4952655;28;20065;-83
2023/04/19 06:01:29;;;;;;;25.83;11.35;;;;;;;;;;4913983;29;20511;-81
2023/04/19 06:04:21;;;;;;;25.15;10.20;;;;;;;;;;4931953;28;20043;-82
2023/04/19 06:07:08;;;;;;;24.83;10.05;;;;;;;;;;4902887;28;20051;-81
2023/04/19 06:09:59;;;;;;;21.33;9.90;;;;;;;;;;4912824;28;20082;-81
2023/04/19 06:13:38;;;;;;;23.02;10.38;;;;;;;;;;4902859;29;20051;-79
2023/04/19 06:16:14;;;;;;;25.67;9.25;;;;;;;;;;4899433;28;20043;-82
2023/04/19 06:19:12;;;;;;;18.67;8.98;;;;;;;;;;4899732;29;20051;-82
2023/04/19 06:21:54;;;;;;;21.25;8.52;;;;;;;;;;4897593;23;20160;-86
2023/04/19 06:24:21;;;;;;;16.85;7.43;;;;;;;;;;4941113;29;20055;-86
2023/04/19 06:26:48;;;;;;;15.13;7.15;;;;;;;;;;4925278;29;20296;-86
2023/04/19 06:29:15;;;;;;;17.98;6.63;;;;;;;;;;4925729;29;20055;-86
2023/04/19 06:31:42;;;;;;;19.52;6.05;;;;;;;;;;4907512;29;20073;-86
2023/04/19 06:34:09;;;;;;;11.60;4.85;;;;;;;;;;4924941;29;20168;-87
2023/04/19 06:36:37;;;;;;;8.63;4.25;;;;;;;;;;4921849;29;20052;-86
2023/04/19 06:39:03;;;;;;;8.15;4.05;;;;;;;;;;4923535;29;20052;-84
2023/04/19 06:41:31;;;;;;;8.63;4.30;;;;;;;;;;4940878;29;20143;-86
2023/04/19 06:43:57;;;;;;;9.68;4.32;;;;;;;;;;4940611;29;20060;-85
2023/04/19 06:46:26;;;;;;;9.68;3.95;;;;;;;;;;4941060;29;20421;-85
2023/04/19 06:48:57;;;;;;;8.57;3.65;;;;;;;;;;4922434;29;20056;-86
2023/04/19 06:51:23;;;;;;;13.63;3.70;;;;;;;;;;4909677;29;20055;-87
2023/04/19 06:53:51;;;;;;;7.03;3.65;;;;;;;;;;4911998;29;20048;-85
2023/04/19 06:56:37;;;;;;;12.05;4.18;;;;;;;;;;4910512;29;20045;-87
2023/04/19 06:59:06;;;;;;;10.25;3.90;;;;;;;;;;4909250;29;20143;-85
2023/04/19 07:01:35;;;;;;;10.93;3.40;;;;;;;;;;4927056;29;20481;-86
2023/04/19 07:04:02;;;;;;;10.30;3.20;;;;;;;;;;4923191;29;20063;-86
2023/04/19 07:06:29;;;;;;;10.00;3.33;;;;;;;;;;4924862;29;20078;-86
2023/04/19 07:08:56;;;;;;;7.75;3.42;;;;;;;;;;4940259;29;20315;-85
2023/04/19 07:11:22;;;;;;;5.63;3.03;;;;;;;;;;4908617;29;20059;-87
2023/04/19 07:13:49;;;;;;;9.07;2.88;;;;;;;;;;4907421;29;20116;-87
2023/04/19 07:16:16;;;;;;;5.40;2.70;;;;;;;;;;4907942;29;20132;-87
2023/04/19 07:18:42;;;;;;;8.30;2.65;;;;;;;;;;4909082;29;20040;-87
2023/04/19 07:21:09;;;;;;;7.72;3.00;;;;;;;;;;4921764;29;20458;-87
2023/04/19 07:23:36;;;;;;;5.50;2.72;;;;;;;;;;4911823;29;20044;-87
2023/04/19 07:26:03;;;;;;;6.95;2.75;;;;;;;;;;4903723;29;20048;-88
2023/04/19 07:28:30;;;;;;;7.43;3.13;;;;;;;;;;4922653;29;20073;-85
2023/04/19 07:30:59;;;;;;;19.10;3.75;;;;;;;;;;4923054;29;20269;-86
2023/04/19 07:33:29;;;;;;;4.57;2.60;;;;;;;;;;4907223;29;20079;-85
2023/04/19 07:35:56;;;;;;;6.97;2.65;;;;;;;;;;4924183;29;20045;-84
2023/04/19 07:38:23;;;;;;;6.15;2.38;;;;;;;;;;4938500;29;20055;-86
2023/04/19 07:40:50;;;;;;;5.65;2.20;;;;;;;;;;4922868;29;20041;-86
2023/04/19 07:43:17;;;;;;;3.90;2.15;;;;;;;;;;4907543;29;20105;-85
2023/04/19 07:45:44;;;;;;;6.22;2.30;;;;;;;;;;4923107;29;20039;-87
2023/04/19 07:48:11;;;;;;;4.70;2.33;;;;;;;;;;4925465;29;20050;-86
2023/04/19 07:50:37;;;;;;;5.68;2.40;;;;;;;;;;4894278;29;20521;-84
2023/04/19 07:53:04;;;;;;;6.15;2.55;;;;;;;;;;4924134;29;20044;-87
2023/04/19 07:55:31;;;;;;;7.57;2.47;;;;;;;;;;4926662;29;20055;-85
2023/04/19 07:57:58;;;;;;;6.03;2.60;;;;;;;;;;4945500;29;20120;-87
2023/04/19 08:00:25;;;;;;;6.25;2.85;;;;;;;;;;4929454;29;20031;-86
2023/04/19 08:02:55;;;;;;;7.93;2.78;;;;;;;;;;4929189;29;20044;-86
2023/04/19 08:05:22;;;;;;;11.05;2.55;;;;;;;;;;4913328;29;20047;-85
2023/04/19 08:07:51;;;;;;;5.35;2.50;;;;;;;;;;4916155;29;20052;-87
2023/04/19 08:10:18;;;;;;;5.32;2.22;;;;;;;;;;4900300;29;20060;-84
2023/04/19 08:12:47;;;;;;;3.38;1.92;;;;;;;;;;4926817;29;20051;-86
2023/04/19 08:15:34;;;;;;;6.53;2.58;;;;;;;;;;4915108;29;20066;-85
2023/04/19 08:18:05;;;;;;;6.15;2.40;;;;;;;;;;4909066;29;20433;-85
2023/04/19 08:20:33;;;;;;;9.63;2.50;;;;;;;;;;4924103;29;20054;-86
2023/04/19 08:23:00;;;;;;;8.43;2.45;;;;;;;;;;4907970;29;20111;-84
2023/04/19 08:25:43;;;;;;;6.85;2.47;;;;;;;;;;4893306;29;20057;-86
2023/04/19 08:28:12;;;;;;;5.18;2.33;;;;;;;;;;4937683;29;20048;-86
2023/04/19 08:30:40;;;;;;;5.07;2.35;;;;;;;;;;4923263;29;20208;-86
2023/04/19 08:33:07;;;;;;;5.28;2.20;;;;;;;;;;4921636;29;20052;-87
2023/04/19 08:35:35;;;;;;;7.82;2.67;;;;;;;;;;4940015;29;20112;-87
2023/04/19 08:38:05;;;;;;;7.55;2.30;;;;;;;;;;4926159;29;20481;-85
2023/04/19 08:40:32;;;;;;;4.82;2.20;;;;;;;;;;4910473;29;20044;-86
2023/04/19 08:42:58;;;;;;;5.38;2.33;;;;;;;;;;4925236;29;20055;-85
2023/04/19 08:45:26;;;;;;;6.80;2.50;;;;;;;;;;4946317;29;20117;-85
2023/04/19 08:47:55;;;;;;;6.43;2.60;;;;;;;;;;4932173;29;20063;-86
2023/04/19 08:50:28;;;;;;;8.77;2.70;;;;;;;;;;4908479;29;20044;-85
2023/04/19 08:52:58;;;;;;;5.07;2.55;;;;;;;;;;4892642;29;20048;-87
2023/04/19 08:55:42;;;;;;;5.50;2.47;;;;;;;;;;4903452;29;20107;-85
2023/04/19 08:58:32;;;;;;;6.40;2.50;;;;;;;;;;4908887;29;20044;-84
2023/04/19 09:01:05;;;;;;;7.03;2.10;;;;;;;;;;4907961;29;20058;-83
2023/04/19 09:03:33;;;;;;;6.07;2.13;;;;;;;;;;4910386;29;20055;-86
2023/04/19 09:06:17;;;;;;;4.60;2.28;;;;;;;;;;4927990;29;20244;-85
2023/04/19 09:08:45;;;;;;;5.53;2.08;;;;;;;;;;4891799;29;20052;-84
2023/04/19 09:11:12;;;;;;;6.72;2.55;;;;;;;;;;4924922;29;20044;-85
2023/04/19 09:13:41;;;;;;;3.88;2.15;;;;;;;;;;4908808;29;20258;-86
2023/04/19 09:16:33;;;;;;;5.70;2.47;;;;;;;;;;4924792;29;20095;-84
2023/04/19 09:19:01;;;;;;;6.10;2.58;;;;;;;;;;4938031;29;20060;-86
2023/04/19 09:21:50;;;;;;;7.47;2.65;;;;;;;;;;4907921;29;20060;-85
2023/04/19 09:24:17;;;;;;;4.63;2.78;;;;;;;;;;4910887;29;20052;-86
2023/04/19 09:26:54;;;;;;;5.88;2.70;;;;;;;;;;4948114;29;20064;-86
2023/04/19 09:29:21;;;;;;;4.25;2.10;;;;;;;;;;4938085;29;20042;-85
2023/04/19 09:31:57;;;;;;;6.97;2.58;;;;;;;;;;4943089;29;20059;-84
2023/04/19 09:34:30;;;;;;;7.68;2.50;;;;;;;;;;4938963;29;20047;-85
2023/04/19 09:36:57;;;;;;;8.02;2.50;;;;;;;;;;4924851;29;20063;-82
2023/04/19 09:39:39;;;;;;;10.90;2.40;;;;;;;;;;4927806;29;20048;-83
2023/04/19 09:42:06;;;;;;;4.95;2.53;;;;;;;;;;4923394;29;20042;-85
2023/04/19 09:44:35;;;;;;;8.48;2.40;;;;;;;;;;4924106;29;20067;-85
2023/04/19 09:47:25;;;;;;;5.68;2.50;;;;;;;;;;4931053;29;20087;-85
2023/04/19 09:50:04;;;;;;;8.40;2.80;;;;;;;;;;4915921;29;20052;-84
2023/04/19 09:52:48;;;;;;;7.93;3.17;;;;;;;;;;4927443;29;20058;-86
2023/04/19 09:55:16;;;;;;;6.20;2.92;;;;;;;;;;4922206;29;20064;-82
2023/04/19 09:57:53;;;;;;;8.57;2.95;;;;;;;;;;4925366;29;20075;-85
2023/04/19 10:00:21;;;;;;;7.28;2.75;;;;;;;;;;4921881;29;20076;-87
2023/04/19 10:02:56;;;;;;;6.45;2.97;;;;;;;;;;4925821;29;20052;-86
2023/04/19 10:05:24;;;;;;;5.40;2.90;;;;;;;;;;4922302;29;20176;-85
2023/04/19 10:07:54;;;;;;;8.60;2.80;;;;;;;;;;4906461;29;20044;-85
2023/04/19 10:10:28;;;;;;;7.95;2.85;;;;;;;;;;4915028;29;20490;-83
2023/04/19 10:13:14;;;;;;;10.93;3.10;;;;;;;;;;4901157;29;20123;-82
2023/04/19 10:15:48;;;;;;;9.18;3.35;;;;;;;;;;4916687;29;20111;-84
2023/04/19 10:18:23;;;;;;;7.50;3.10;;;;;;;;;;4894833;29;20051;-90
2023/04/19 10:21:00;;;;;;;6.70;2.92;;;;;;;;;;4922145;29;20057;-85
2023/04/19 10:23:28;;;;;;;7.95;2.85;;;;;;;;;;4903993;29;20073;-86
2023/04/19 10:25:56;;;;;;;8.27;3.20;;;;;;;;;;4920029;29;20055;-85
2023/04/19 10:28:26;;;;;;;7.85;2.83;;;;;;;;;;4922422;29;20103;-83
2023/04/19 10:30:54;;;;;;;6.68;3.03;;;;;;;;;;4942638;29;20074;-84
2023/04/19 10:33:24;;;;;;;7.07;2.83;;;;;;;;;;4924322;29;20051;-89
2023/04/19 10:35:54;;;;;;;5.53;2.97;;;;;;;;;;4908239;29;20501;-85
2023/04/19 10:38:34;;;;;;;5.15;2.72;;;;;;;;;;4923676;29;20055;-85
2023/04/19 10:41:02;;;;;;;6.28;2.88;;;;;;;;;;4922937;29;20052;-87
2023/04/19 10:43:33;;;;;;;6.90;3.00;;;;;;;;;;4927592;29;20067;-82
2023/04/19 10:46:05;;;;;;;8.05;3.25;;;;;;;;;;4925837;29;20105;-85
2023/04/19 10:48:36;;;;;;;8.52;3.50;;;;;;;;;;4909650;29;20076;-87
2023/04/19 10:51:15;;;;;;;7.13;3.33;;;;;;;;;;4923166;29;20048;-86
2023/04/19 10:53:45;;;;;;;6.93;2.75;;;;;;;;;;4910047;29;20051;-88
2023/04/19 10:56:18;;;;;;;5.53;2.63;;;;;;;;;;4910242;29;20056;-89
2023/04/19 10:59:06;;;;;;;7.45;2.92;;;;;;;;;;4926110;29;20056;-86
2023/04/19 11:01:36;;;;;;;9.88;2.85;;;;;;;;;;4934228;29;20052;-87
2023/04/19 11:04:07;;;;;;;6.35;2.90;;;;;;;;;;4927859;29;20048;-88
2023/04/19 11:06:37;;;;;;;4.32;2.60;;;;;;;;;;4892235;29;20052;-88
2023/04/19 11:09:20;;;;;;;13.85;3.42;;;;;;;;;;4897792;29;20441;-88
2023/04/19 11:11:56;;;;;;;5.90;2.60;;;;;;;;;;4896145;29;20071;-89
2023/04/19 11:14:24;;;;;;;7.55;2.90;;;;;;;;;;4909203;29;20048;-87
2023/04/19 11:17:05;;;;;;;6.20;2.70;;;;;;;;;;4919928;29;20067;-89
2023/04/19 11:19:33;;;;;;;4.90;3.00;;;;;;;;;;4911808;29;20168;-88
2023/04/19 11:22:00;;;;;;;9.70;3.70;;;;;;;;;;4906531;29;20060;-87
2023/04/19 11:24:28;;;;;;;7.32;3.30;;;;;;;;;;4917438;29;20067;-90
2023/04/19 11:27:06;;;;;;;6.60;3.42;;;;;;;;;;4894167;29;20104;-88
2023/04/19 11:29:34;;;;;;;8.00;3.13;;;;;;;;;;4909592;29;20052;-90
2023/04/19 11:32:01;;;;;;;6.72;2.78;;;;;;;;;;4896918;29;20123;-86
2023/04/19 11:34:34;;;;;;;5.10;3.00;;;;;;;;;;4909231;29;20111;-87
2023/04/19 11:37:02;;;;;;;8.55;3.28;;;;;;;;;;4883181;29;20044;-89
2023/04/19 11:39:31;;;;;;;6.93;3.22;;;;;;;;;;4898610;29;20536;-90
2023/04/19 11:42:02;;;;;;;5.97;3.00;;;;;;;;;;4886815;29;20048;-89
2023/04/19 11:44:30;;;;;;;8.45;3.58;;;;;;;;;;4909966;29;20052;-89
2023/04/19 11:47:00;;;;;;;6.60;3.00;;;;;;;;;;4894517;29;20099;-89
2023/04/19 11:49:32;;;;;;;10.60;3.08;;;;;;;;;;4925223;29;20052;-89
2023/04/19 11:52:04;;;;;;;6.03;2.80;;;;;;;;;;4923172;29;20465;-88
2023/04/19 11:54:34;;;;;;;7.70;3.20;;;;;;;;;;4925779;29;20047;-86
2023/04/19 11:57:04;;;;;;;6.03;2.78;;;;;;;;;;4906776;29;20079;-87
2023/04/19 11:59:32;;;;;;;6.10;2.80;;;;;;;;;;4906937;29;20060;-89
2023/04/19 12:02:04;;;;;;;6.85;3.20;;;;;;;;;;4908549;29;20076;-88
2023/04/19 12:04:36;;;;;;;5.78;2.95;;;;;;;;;;4906059;29;20096;-87
2023/04/19 12:07:05;;;;;;;7.60;2.78;;;;;;;;;;4875433;29;20096;-87
2023/04/19 12:09:35;;;;;;;8.70;3.10;;;;;;;;;;4890199;29;20214;-87
2023/04/19 12:12:02;;;;;;;4.93;2.80;;;;;;;;;;4905710;29;20056;-89
2023/04/19 12:14:30;;;;;;;6.50;3.03;;;;;;;;;;4872611;29;20056;-89
2023/04/19 12:17:05;;;;;;;6.93;2.65;;;;;;;;;;4896372;29;20048;-88
2023/04/19 12:19:36;;;;;;;5.82;2.70;;;;;;;;;;4905900;29;20055;-88
2023/04/19 12:22:07;;;;;;;7.72;3.03;;;;;;;;;;4904588;29;20068;-86
2023/04/19 12:24:34;;;;;;;8.20;3.25;;;;;;;;;;4906369;29;20128;-88
2023/04/19 12:27:02;;;;;;;5.75;2.90;;;;;;;;;;4904456;29;20049;-88
2023/04/19 12:29:38;;;;;;;7.88;3.33;;;;;;;;;;4905356;29;20040;-86
2023/04/19 12:32:05;;;;;;;9.50;3.22;;;;;;;;;;4872917;29;20506;-86
2023/04/19 12:34:33;;;;;;;6.90;3.47;;;;;;;;;;4890139;29;20040;-87
2023/04/19 12:37:03;;;;;;;10.93;3.42;;;;;;;;;;4889824;29;20048;-87
2023/04/19 12:39:36;;;;;;;5.65;3.10;;;;;;;;;;4889815;29;20040;-86
2023/04/19 12:42:05;;;;;;;6.28;2.80;;;;;;;;;;4889872;29;20048;-85
2023/04/19 12:44:32;;;;;;;5.72;3.00;;;;;;;;;;4907561;29;20055;-88
2023/04/19 12:46:58;;;;;;;6.40;2.95;;;;;;;;;;4906039;29;20060;-84
2023/04/19 12:49:26;;;;;;;6.25;2.92;;;;;;;;;;4926577;29;20067;-86
2023/04/19 12:51:52;;;;;;;6.18;3.17;;;;;;;;;;4925861;29;20186;-85
2023/04/19 12:54:22;;;;;;;7.25;3.38;;;;;;;;;;4911399;29;20048;-88
2023/04/19 12:56:49;;;;;;;10.35;3.78;;;;;;;;;;4896867;29;20048;-88
2023/04/19 12:59:21;;;;;;;6.65;3.47;;;;;;;;;;4893898;29;20048;-83
2023/04/19 13:01:48;;;;;;;6.32;3.55;;;;;;;;;;4892106;29;20056;-85
2023/04/19 13:04:19;;;;;;;10.70;3.40;;;;;;;;;;4911458;29;20049;-88
2023/04/19 13:06:47;;;;;;;7.70;3.22;;;;;;;;;;4910069;29;20048;-88
2023/04/19 13:09:14;;;;;;;11.65;3.17;;;;;;;;;;4934071;29;20063;-86
2023/04/19 13:11:41;;;;;;;6.43;3.13;;;;;;;;;;4916711;29;20063;-86
2023/04/19 13:14:07;;;;;;;7.72;2.92;;;;;;;;;;4924427;29;20110;-86
2023/04/19 13:16:34;;;;;;;7.35;3.05;;;;;;;;;;4932882;29;20063;-84
2023/04/19 13:19:00;;;;;;;20.90;3.75;;;;;;;;;;4912650;29;20048;-88
2023/04/19 13:21:27;;;;;;;6.97;2.88;;;;;;;;;;4924536;29;20056;-86
2023/04/19 13:23:57;;;;;;;13.93;3.22;;;;;;;;;;4918501;29;20103;-85
2023/04/19 13:26:24;;;;;;;8.18;2.97;;;;;;;;;;4914730;29;20051;-87
2023/04/19 13:28:51;;;;;;;9.73;3.67;;;;;;;;;;4936813;29;20063;-86
2023/04/19 13:31:17;;;;;;;8.35;3.45;;;;;;;;;;4908904;29;20054;-85
2023/04/19 13:33:45;;;;;;;8.65;3.53;;;;;;;;;;4918347;29;20052;-87
2023/04/19 13:36:11;;;;;;;10.93;3.72;;;;;;;;;;4915950;29;20055;-85
2023/04/19 13:38:38;;;;;;;7.32;3.58;;;;;;;;;;4917543;29;20048;-87
2023/04/19 13:41:05;;;;;;;10.35;3.95;;;;;;;;;;4928032;29;20080;-85
2023/04/19 13:43:31;;;;;;;14.18;6.80;;;;;;;;;;4909393;29;20470;-87
2023/04/19 13:45:59;;;;;;;14.18;7.57;;;;;;;;;;4909570;29;20147;-86
2023/04/19 13:48:27;;;;;;;7.25;3.33;;;;;;;;;;4925315;29;20163;-85
2023/04/19 13:50:55;;;;;;;8.73;4.75;;;;;;;;;;4923531;29;20082;-86
2023/04/19 13:53:22;;;;;;;5.25;2.97;;;;;;;;;;4925114;29;20044;-88
2023/04/19 13:55:49;;;;;;;8.30;3.42;;;;;;;;;;4925432;29;20052;-86
2023/04/19 13:58:16;;;;;;;8.82;3.50;;;;;;;;;;4927252;29;20048;-86
2023/04/19 14:00:43;;;;;;;5.53;2.90;;;;;;;;;;4930421;29;20055;-82
2023/04/19 14:03:10;;;;;;;7.95;2.78;;;;;;;;;;4927477;29;20048;-83
2023/04/19 14:05:37;;;;;;;4.32;2.83;;;;;;;;;;4925831;29;20052;-84
2023/04/19 14:08:04;;;;;;;6.13;3.30;;;;;;;;;;4907352;29;20080;-82
2023/04/19 14:10:30;;;;;;;11.95;3.80;;;;;;;;;;4921208;29;20077;-85
2023/04/19 14:12:57;;;;;;;6.43;3.00;;;;;;;;;;4907724;29;20163;-85
2023/04/19 14:15:25;;;;;;;6.47;3.40;;;;;;;;;;4909331;29;20060;-86
2023/04/19 14:17:52;;;;;;;7.55;3.40;;;;;;;;;;4924017;29;20052;-84
2023/04/19 14:20:21;;;;;;;13.38;4.07;;;;;;;;;;4925753;29;20055;-87
2023/04/19 14:22:48;;;;;;;7.43;4.07;;;;;;;;;;4922446;29;20155;-83
2023/04/19 14:25:15;;;;;;;11.48;4.00;;;;;;;;;;4925620;29;20051;-87
2023/04/19 14:27:44;;;;;;;10.20;3.67;;;;;;;;;;4927163;29;20048;-84
2023/04/19 14:30:10;;;;;;;11.70;4.07;;;;;;;;;;4929477;29;20456;-85
2023/04/19 14:32:38;;;;;;;8.27;3.00;;;;;;;;;;4925914;29;20063;-86
2023/04/19 14:35:07;;;;;;;6.18;2.83;;;;;;;;;;4910177;29;20568;-86
2023/04/19 14:37:34;;;;;;;9.13;3.30;;;;;;;;;;4909036;29;20505;-88
2023/04/19 14:40:00;;;;;;;7.22;3.33;;;;;;;;;;4910505;29;20052;-87
2023/04/19 14:42:28;;;;;;;7.95;3.13;;;;;;;;;;4927309;29;20070;-88
2023/04/19 14:44:56;;;;;;;6.63;3.33;;;;;;;;;;4926881;29;20046;-88
2023/04/19 14:47:25;;;;;;;7.40;3.15;;;;;;;;;;4910732;29;20075;-86